sensor_id;sensor_type;location;lat;lon;timestamp;pressure;altitude;pressure_sealevel;temperature;humidity
31331;BME280;34067;39.548;-76.088;2024-02-14T00:01:18;101018.83;;;3.90;43.71
31331;BME280;34067;39.548;-76.088;2024-02-14T00:03:46;101026.73;;;3.25;43.57
31331;BME280;34067;39.548;-76.088;2024-02-14T00:06:14;101037.44;;;2.50;44.99
31331;BME280;34067;39.548;-76.088;2024-02-14T00:08:42;101036.82;;;3.82;44.64
31331;BME280;34067;39.548;-76.088;2024-02-14T00:11:11;101038.27;;;3.94;43.74
31331;BME280;34067;39.548;-76.088;2024-02-14T00:13:40;101039.24;;;3.90;43.49
31331;BME280;34067;39.548;-76.088;2024-02-14T00:16:08;101045.33;;;3.65;43.14
31331;BME280;34067;39.548;-76.088;2024-02-14T00:18:36;101049.05;;;5.01;42.71
31331;BME280;34067;39.548;-76.088;2024-02-14T00:21:05;101050.91;;;3.44;43.02
31331;BME280;34067;39.548;-76.088;2024-02-14T00:23:33;101054.16;;;4.61;42.42
31331;BME280;34067;39.548;-76.088;2024-02-14T00:26:01;101054.90;;;3.80;42.08
31331;BME280;34067;39.548;-76.088;2024-02-14T00:28:30;101055.05;;;4.43;41.90
31331;BME280;34067;39.548;-76.088;2024-02-14T00:30:59;101064.66;;;4.67;41.42
31331;BME280;34067;39.548;-76.088;2024-02-14T00:33:28;101067.10;;;4.50;41.52
31331;BME280;34067;39.548;-76.088;2024-02-14T00:35:56;101065.36;;;4.98;41.05
31331;BME280;34067;39.548;-76.088;2024-02-14T00:38:24;101066.59;;;3.91;41.48
31331;BME280;34067;39.548;-76.088;2024-02-14T00:40:55;101065.28;;;5.58;40.72
31331;BME280;34067;39.548;-76.088;2024-02-14T00:43:25;101071.08;;;4.54;40.59
31331;BME280;34067;39.548;-76.088;2024-02-14T00:45:54;101058.53;;;5.46;40.71
31331;BME280;34067;39.548;-76.088;2024-02-14T00:48:22;101054.89;;;4.85;40.47
31331;BME280;34067;39.548;-76.088;2024-02-14T00:50:51;101060.30;;;4.61;40.58
31331;BME280;34067;39.548;-76.088;2024-02-14T00:53:19;101065.38;;;4.69;40.97
31331;BME280;34067;39.548;-76.088;2024-02-14T00:55:48;101067.06;;;5.49;40.46
31331;BME280;34067;39.548;-76.088;2024-02-14T00:58:17;101070.06;;;5.37;40.22
31331;BME280;34067;39.548;-76.088;2024-02-14T01:00:45;101069.55;;;5.94;40.04
31331;BME280;34067;39.548;-76.088;2024-02-14T01:03:15;101075.22;;;6.03;39.73
31331;BME280;34067;39.548;-76.088;2024-02-14T01:05:44;101080.49;;;6.15;39.70
31331;BME280;34067;39.548;-76.088;2024-02-14T01:08:13;101085.52;;;5.89;39.74
31331;BME280;34067;39.548;-76.088;2024-02-14T01:10:43;101088.54;;;6.18;39.86
31331;BME280;34067;39.548;-76.088;2024-02-14T01:13:11;101095.09;;;5.49;40.22
31331;BME280;34067;39.548;-76.088;2024-02-14T01:15:39;101097.40;;;5.67;40.24
31331;BME280;34067;39.548;-76.088;2024-02-14T01:18:08;101103.68;;;4.94;40.76
31331;BME280;34067;39.548;-76.088;2024-02-14T01:20:37;101106.50;;;5.33;40.83
31331;BME280;34067;39.548;-76.088;2024-02-14T01:23:05;101109.14;;;4.97;41.10
31331;BME280;34067;39.548;-76.088;2024-02-14T01:25:33;101107.82;;;5.15;40.92
31331;BME280;34067;39.548;-76.088;2024-02-14T01:28:03;101107.37;;;4.93;41.19
31331;BME280;34067;39.548;-76.088;2024-02-14T01:30:32;101104.58;;;5.47;40.99
31331;BME280;34067;39.548;-76.088;2024-02-14T01:33:08;101106.56;;;5.63;40.59
31331;BME280;34067;39.548;-76.088;2024-02-14T01:35:37;101111.25;;;5.88;40.71
31331;BME280;34067;39.548;-76.088;2024-02-14T01:38:06;101110.94;;;5.97;40.62
31331;BME280;34067;39.548;-76.088;2024-02-14T01:40:37;101114.53;;;5.02;41.20
31331;BME280;34067;39.548;-76.088;2024-02-14T01:43:06;101126.31;;;5.35;41.75
31331;BME280;34067;39.548;-76.088;2024-02-14T01:45:34;101120.60;;;4.76;41.74
31331;BME280;34067;39.548;-76.088;2024-02-14T01:48:05;101128.06;;;5.06;41.93
31331;BME280;34067;39.548;-76.088;2024-02-14T01:50:35;101131.17;;;4.27;41.83
31331;BME280;34067;39.548;-76.088;2024-02-14T01:53:05;101125.62;;;4.57;42.30
31331;BME280;34067;39.548;-76.088;2024-02-14T01:55:35;101132.19;;;4.86;42.01
31331;BME280;34067;39.548;-76.088;2024-02-14T01:58:04;101138.17;;;4.49;42.28
31331;BME280;34067;39.548;-76.088;2024-02-14T02:00:38;101145.19;;;3.54;43.13
31331;BME280;34067;39.548;-76.088;2024-02-14T02:03:08;101147.31;;;4.39;42.27
31331;BME280;34067;39.548;-76.088;2024-02-14T02:05:37;101150.09;;;4.44;42.12
31331;BME280;34067;39.548;-76.088;2024-02-14T02:08:08;101152.68;;;4.28;42.70
31331;BME280;34067;39.548;-76.088;2024-02-14T02:10:37;101150.91;;;4.21;42.31
31331;BME280;34067;39.548;-76.088;2024-02-14T02:13:06;101144.40;;;4.21;42.40
31331;BME280;34067;39.548;-76.088;2024-02-14T02:15:38;101147.73;;;3.97;42.84
31331;BME280;34067;39.548;-76.088;2024-02-14T02:18:13;101160.36;;;3.76;43.29
31331;BME280;34067;39.548;-76.088;2024-02-14T02:20:43;101172.79;;;3.67;42.91
31331;BME280;34067;39.548;-76.088;2024-02-14T02:23:15;101160.53;;;3.35;42.89
31331;BME280;34067;39.548;-76.088;2024-02-14T02:25:43;101154.22;;;3.34;42.79
31331;BME280;34067;39.548;-76.088;2024-02-14T02:28:11;101157.38;;;4.16;42.14
31331;BME280;34067;39.548;-76.088;2024-02-14T02:30:42;101159.24;;;4.04;41.77
31331;BME280;34067;39.548;-76.088;2024-02-14T02:33:13;101165.12;;;3.78;41.00
31331;BME280;34067;39.548;-76.088;2024-02-14T02:35:43;101168.55;;;4.52;41.22
31331;BME280;34067;39.548;-76.088;2024-02-14T02:38:13;101170.36;;;4.78;40.95
31331;BME280;34067;39.548;-76.088;2024-02-14T02:40:45;101167.07;;;4.71;40.77
31331;BME280;34067;39.548;-76.088;2024-02-14T02:43:13;101159.69;;;4.57;40.33
31331;BME280;34067;39.548;-76.088;2024-02-14T02:45:42;101165.53;;;4.60;40.25
31331;BME280;34067;39.548;-76.088;2024-02-14T02:48:12;101176.44;;;4.77;39.95
31331;BME280;34067;39.548;-76.088;2024-02-14T02:50:41;101176.28;;;5.29;40.34
31331;BME280;34067;39.548;-76.088;2024-02-14T02:53:09;101167.63;;;4.87;40.08
31331;BME280;34067;39.548;-76.088;2024-02-14T02:55:39;101163.62;;;4.24;40.44
31331;BME280;34067;39.548;-76.088;2024-02-14T02:58:07;101164.85;;;4.63;40.46
31331;BME280;34067;39.548;-76.088;2024-02-14T03:00:36;101166.16;;;5.31;39.74
31331;BME280;34067;39.548;-76.088;2024-02-14T03:03:08;101176.47;;;5.51;39.85
31331;BME280;34067;39.548;-76.088;2024-02-14T03:05:38;101182.48;;;5.16;39.93
31331;BME280;34067;39.548;-76.088;2024-02-14T03:08:07;101187.57;;;5.13;39.75
31331;BME280;34067;39.548;-76.088;2024-02-14T03:10:37;101186.37;;;5.56;39.61
31331;BME280;34067;39.548;-76.088;2024-02-14T03:13:08;101187.18;;;5.02;39.78
31331;BME280;34067;39.548;-76.088;2024-02-14T03:15:36;101178.76;;;5.63;39.37
31331;BME280;34067;39.548;-76.088;2024-02-14T03:18:06;101181.18;;;5.37;39.62
31331;BME280;34067;39.548;-76.088;2024-02-14T03:20:35;101188.97;;;5.33;39.50
31331;BME280;34067;39.548;-76.088;2024-02-14T03:23:05;101195.88;;;5.30;39.32
31331;BME280;34067;39.548;-76.088;2024-02-14T03:25:38;101200.94;;;5.06;39.32
31331;BME280;34067;39.548;-76.088;2024-02-14T03:28:08;101207.97;;;5.72;39.48
31331;BME280;34067;39.548;-76.088;2024-02-14T03:30:36;101198.32;;;5.24;39.52
31331;BME280;34067;39.548;-76.088;2024-02-14T03:33:05;101205.33;;;5.49;39.83
31331;BME280;34067;39.548;-76.088;2024-02-14T03:35:34;101203.85;;;5.42;39.31
31331;BME280;34067;39.548;-76.088;2024-02-14T03:38:05;101201.14;;;5.74;39.09
31331;BME280;34067;39.548;-76.088;2024-02-14T03:40:34;101201.96;;;6.06;38.72
31331;BME280;34067;39.548;-76.088;2024-02-14T03:43:02;101202.67;;;6.24;38.38
31331;BME280;34067;39.548;-76.088;2024-02-14T03:45:31;101200.19;;;6.12;38.48
31331;BME280;34067;39.548;-76.088;2024-02-14T03:47:59;101201.35;;;5.61;38.97
31331;BME280;34067;39.548;-76.088;2024-02-14T03:50:27;101217.57;;;5.50;38.96
31331;BME280;34067;39.548;-76.088;2024-02-14T03:52:56;101226.21;;;5.85;38.48
31331;BME280;34067;39.548;-76.088;2024-02-14T03:55:24;101229.75;;;5.69;38.31
31331;BME280;34067;39.548;-76.088;2024-02-14T03:57:53;101228.12;;;5.81;38.64
31331;BME280;34067;39.548;-76.088;2024-02-14T04:00:21;101240.86;;;4.38;39.66
31331;BME280;34067;39.548;-76.088;2024-02-14T04:02:49;101240.76;;;5.23;39.66
31331;BME280;34067;39.548;-76.088;2024-02-14T04:05:18;101238.14;;;5.79;39.28
31331;BME280;34067;39.548;-76.088;2024-02-14T04:07:46;101236.36;;;5.69;39.43
31331;BME280;34067;39.548;-76.088;2024-02-14T04:10:15;101232.98;;;4.54;39.63
31331;BME280;34067;39.548;-76.088;2024-02-14T04:12:43;101222.00;;;5.11;39.10
31331;BME280;34067;39.548;-76.088;2024-02-14T04:15:12;101223.53;;;5.35;38.95
31331;BME280;34067;39.548;-76.088;2024-02-14T04:17:40;101237.10;;;4.84;39.67
31331;BME280;34067;39.548;-76.088;2024-02-14T04:20:09;101246.07;;;4.77;39.89
31331;BME280;34067;39.548;-76.088;2024-02-14T04:22:37;101254.01;;;3.43;40.78
31331;BME280;34067;39.548;-76.088;2024-02-14T04:25:08;101257.58;;;4.74;40.04
31331;BME280;34067;39.548;-76.088;2024-02-14T04:27:35;101258.36;;;4.93;39.63
31331;BME280;34067;39.548;-76.088;2024-02-14T04:30:03;101255.10;;;4.82;39.14
31331;BME280;34067;39.548;-76.088;2024-02-14T04:32:32;101257.64;;;5.38;38.96
31331;BME280;34067;39.548;-76.088;2024-02-14T04:34:59;101267.69;;;5.96;38.86
31331;BME280;34067;39.548;-76.088;2024-02-14T04:37:28;101273.41;;;5.76;38.50
31331;BME280;34067;39.548;-76.088;2024-02-14T04:39:56;101277.75;;;6.01;38.59
31331;BME280;34067;39.548;-76.088;2024-02-14T04:42:25;101281.03;;;5.90;38.53
31331;BME280;34067;39.548;-76.088;2024-02-14T04:44:52;101285.40;;;5.69;38.50
31331;BME280;34067;39.548;-76.088;2024-02-14T04:47:20;101286.02;;;4.53;39.59
31331;BME280;34067;39.548;-76.088;2024-02-14T04:49:48;101284.18;;;5.34;39.20
31331;BME280;34067;39.548;-76.088;2024-02-14T04:52:16;101295.32;;;5.44;39.35
31331;BME280;34067;39.548;-76.088;2024-02-14T04:54:43;101293.92;;;5.47;39.78
31331;BME280;34067;39.548;-76.088;2024-02-14T04:57:11;101297.12;;;4.42;40.18
31331;BME280;34067;39.548;-76.088;2024-02-14T04:59:40;101297.14;;;4.21;40.60
31331;BME280;34067;39.548;-76.088;2024-02-14T05:02:08;101291.68;;;4.55;40.16
31331;BME280;34067;39.548;-76.088;2024-02-14T05:04:36;101294.00;;;4.20;40.82
31331;BME280;34067;39.548;-76.088;2024-02-14T05:07:03;101292.89;;;3.60;40.39
31331;BME280;34067;39.548;-76.088;2024-02-14T05:09:31;101298.52;;;3.29;41.46
31331;BME280;34067;39.548;-76.088;2024-02-14T05:11:59;101299.90;;;3.06;41.71
31331;BME280;34067;39.548;-76.088;2024-02-14T05:14:27;101302.24;;;3.21;42.24
31331;BME280;34067;39.548;-76.088;2024-02-14T05:16:55;101309.02;;;2.85;42.11
31331;BME280;34067;39.548;-76.088;2024-02-14T05:19:22;101312.40;;;2.33;42.96
31331;BME280;34067;39.548;-76.088;2024-02-14T05:21:50;101314.72;;;1.79;43.71
31331;BME280;34067;39.548;-76.088;2024-02-14T05:24:18;101311.39;;;2.78;43.09
31331;BME280;34067;39.548;-76.088;2024-02-14T05:26:46;101308.69;;;2.25;42.97
31331;BME280;34067;39.548;-76.088;2024-02-14T05:29:14;101312.14;;;1.44;43.49
31331;BME280;34067;39.548;-76.088;2024-02-14T05:31:44;101302.02;;;2.66;43.20
31331;BME280;34067;39.548;-76.088;2024-02-14T05:34:13;101300.01;;;2.85;42.68
31331;BME280;34067;39.548;-76.088;2024-02-14T05:36:41;101300.26;;;2.25;42.38
31331;BME280;34067;39.548;-76.088;2024-02-14T05:39:09;101300.15;;;3.07;41.75
31331;BME280;34067;39.548;-76.088;2024-02-14T05:41:37;101299.48;;;2.30;41.84
31331;BME280;34067;39.548;-76.088;2024-02-14T05:44:05;101308.43;;;1.75;42.02
31331;BME280;34067;39.548;-76.088;2024-02-14T05:46:33;101305.22;;;2.06;42.26
31331;BME280;34067;39.548;-76.088;2024-02-14T05:49:00;101312.07;;;2.81;41.61
31331;BME280;34067;39.548;-76.088;2024-02-14T05:51:28;101311.46;;;2.37;42.39
31331;BME280;34067;39.548;-76.088;2024-02-14T05:53:55;101308.76;;;2.23;41.75
31331;BME280;34067;39.548;-76.088;2024-02-14T05:56:22;101307.67;;;1.65;42.16
31331;BME280;34067;39.548;-76.088;2024-02-14T05:58:50;101311.53;;;2.08;40.94
31331;BME280;34067;39.548;-76.088;2024-02-14T06:03:11;101324.18;;;1.84;41.53
31331;BME280;34067;39.548;-76.088;2024-02-14T06:05:38;101318.04;;;2.33;40.24
31331;BME280;34067;39.548;-76.088;2024-02-14T06:08:06;101324.64;;;2.78;40.03
31331;BME280;34067;39.548;-76.088;2024-02-14T06:10:34;101335.01;;;1.94;40.51
31331;BME280;34067;39.548;-76.088;2024-02-14T06:13:02;101328.15;;;0.93;40.95
31331;BME280;34067;39.548;-76.088;2024-02-14T06:15:30;101339.44;;;0.98;40.48
31331;BME280;34067;39.548;-76.088;2024-02-14T06:17:58;101336.96;;;1.58;40.08
31331;BME280;34067;39.548;-76.088;2024-02-14T06:20:25;101344.17;;;0.55;41.43
31331;BME280;34067;39.548;-76.088;2024-02-14T06:22:53;101346.86;;;1.04;39.73
31331;BME280;34067;39.548;-76.088;2024-02-14T06:25:20;101357.17;;;1.37;39.06
31331;BME280;34067;39.548;-76.088;2024-02-14T06:27:48;101363.19;;;1.18;39.42
31331;BME280;34067;39.548;-76.088;2024-02-14T06:30:16;101367.67;;;1.09;39.49
31331;BME280;34067;39.548;-76.088;2024-02-14T06:32:43;101381.79;;;0.18;40.48
31331;BME280;34067;39.548;-76.088;2024-02-14T06:35:11;101373.92;;;0.68;40.12
31331;BME280;34067;39.548;-76.088;2024-02-14T06:37:38;101381.86;;;1.21;39.92
31331;BME280;34067;39.548;-76.088;2024-02-14T06:40:07;101370.70;;;1.51;39.96
31331;BME280;34067;39.548;-76.088;2024-02-14T06:42:35;101378.42;;;1.06;40.32
31331;BME280;34067;39.548;-76.088;2024-02-14T06:45:05;101383.47;;;1.62;39.79
31331;BME280;34067;39.548;-76.088;2024-02-14T06:47:33;101383.21;;;1.42;39.88
31331;BME280;34067;39.548;-76.088;2024-02-14T06:50:01;101376.87;;;0.76;40.44
31331;BME280;34067;39.548;-76.088;2024-02-14T06:52:28;101380.09;;;1.54;40.23
31331;BME280;34067;39.548;-76.088;2024-02-14T06:54:56;101380.39;;;1.34;40.07
31331;BME280;34067;39.548;-76.088;2024-02-14T06:57:25;101382.76;;;1.49;39.61
31331;BME280;34067;39.548;-76.088;2024-02-14T06:59:53;101379.87;;;2.43;39.23
31331;BME280;34067;39.548;-76.088;2024-02-14T07:02:20;101381.13;;;2.53;38.62
31331;BME280;34067;39.548;-76.088;2024-02-14T07:04:48;101374.98;;;2.47;38.53
31331;BME280;34067;39.548;-76.088;2024-02-14T07:07:16;101377.99;;;2.55;39.41
31331;BME280;34067;39.548;-76.088;2024-02-14T07:09:43;101377.93;;;2.27;39.50
31331;BME280;34067;39.548;-76.088;2024-02-14T07:12:11;101376.49;;;1.87;39.41
31331;BME280;34067;39.548;-76.088;2024-02-14T07:14:39;101376.40;;;1.58;38.84
31331;BME280;34067;39.548;-76.088;2024-02-14T07:17:07;101367.21;;;1.42;39.16
31331;BME280;34067;39.548;-76.088;2024-02-14T07:19:34;101369.20;;;0.65;39.25
31331;BME280;34067;39.548;-76.088;2024-02-14T07:22:02;101374.44;;;0.56;40.45
31331;BME280;34067;39.548;-76.088;2024-02-14T07:24:29;101370.42;;;0.90;40.00
31331;BME280;34067;39.548;-76.088;2024-02-14T07:26:57;101372.33;;;1.73;39.41
31331;BME280;34067;39.548;-76.088;2024-02-14T07:29:25;101373.67;;;1.66;38.61
31331;BME280;34067;39.548;-76.088;2024-02-14T07:31:53;101380.65;;;1.34;39.33
31331;BME280;34067;39.548;-76.088;2024-02-14T07:34:20;101386.62;;;1.45;38.51
31331;BME280;34067;39.548;-76.088;2024-02-14T07:36:47;101388.04;;;0.91;39.10
31331;BME280;34067;39.548;-76.088;2024-02-14T07:39:15;101391.97;;;1.02;39.30
31331;BME280;34067;39.548;-76.088;2024-02-14T07:41:43;101392.15;;;0.90;39.43
31331;BME280;34067;39.548;-76.088;2024-02-14T07:44:11;101392.11;;;1.28;39.74
31331;BME280;34067;39.548;-76.088;2024-02-14T07:46:39;101389.99;;;0.88;39.62
31331;BME280;34067;39.548;-76.088;2024-02-14T07:49:08;101391.58;;;1.16;39.42
31331;BME280;34067;39.548;-76.088;2024-02-14T07:51:36;101393.16;;;0.81;38.97
31331;BME280;34067;39.548;-76.088;2024-02-14T07:54:04;101399.27;;;1.45;38.74
31331;BME280;34067;39.548;-76.088;2024-02-14T07:56:32;101397.89;;;2.85;38.47
31331;BME280;34067;39.548;-76.088;2024-02-14T07:59:00;101399.49;;;2.60;37.81
31331;BME280;34067;39.548;-76.088;2024-02-14T08:01:28;101400.02;;;2.46;37.66
31331;BME280;34067;39.548;-76.088;2024-02-14T08:03:55;101405.19;;;3.17;37.57
31331;BME280;34067;39.548;-76.088;2024-02-14T08:06:23;101406.57;;;3.78;37.19
31331;BME280;34067;39.548;-76.088;2024-02-14T08:08:50;101412.50;;;3.69;36.77
31331;BME280;34067;39.548;-76.088;2024-02-14T08:11:19;101416.58;;;3.58;37.21
31331;BME280;34067;39.548;-76.088;2024-02-14T08:13:46;101414.69;;;3.54;37.42
31331;BME280;34067;39.548;-76.088;2024-02-14T08:16:15;101408.37;;;3.75;37.00
31331;BME280;34067;39.548;-76.088;2024-02-14T08:18:43;101407.78;;;2.45;37.56
31331;BME280;34067;39.548;-76.088;2024-02-14T08:21:10;101406.28;;;2.50;37.91
31331;BME280;34067;39.548;-76.088;2024-02-14T08:23:38;101407.52;;;2.27;38.25
31331;BME280;34067;39.548;-76.088;2024-02-14T08:26:05;101412.50;;;2.58;38.16
31331;BME280;34067;39.548;-76.088;2024-02-14T08:28:33;101416.96;;;2.38;38.51
31331;BME280;34067;39.548;-76.088;2024-02-14T08:31:01;101418.50;;;2.43;37.94
31331;BME280;34067;39.548;-76.088;2024-02-14T08:33:29;101414.98;;;2.51;38.95
31331;BME280;34067;39.548;-76.088;2024-02-14T08:35:56;101417.89;;;2.39;38.79
31331;BME280;34067;39.548;-76.088;2024-02-14T08:38:24;101423.59;;;2.04;38.66
31331;BME280;34067;39.548;-76.088;2024-02-14T08:40:52;101422.97;;;0.93;39.53
31331;BME280;34067;39.548;-76.088;2024-02-14T08:43:19;101426.60;;;1.59;39.19
31331;BME280;34067;39.548;-76.088;2024-02-14T08:45:47;101428.56;;;1.49;39.55
31331;BME280;34067;39.548;-76.088;2024-02-14T08:48:14;101435.34;;;2.30;39.28
31331;BME280;34067;39.548;-76.088;2024-02-14T08:50:42;101435.91;;;1.11;38.98
31331;BME280;34067;39.548;-76.088;2024-02-14T08:53:10;101439.06;;;1.48;39.15
31331;BME280;34067;39.548;-76.088;2024-02-14T08:55:37;101444.19;;;1.69;38.78
31331;BME280;34067;39.548;-76.088;2024-02-14T08:58:05;101443.78;;;1.33;38.63
31331;BME280;34067;39.548;-76.088;2024-02-14T09:00:33;101446.73;;;1.49;38.88
31331;BME280;34067;39.548;-76.088;2024-02-14T09:03:00;101453.15;;;0.38;38.83
31331;BME280;34067;39.548;-76.088;2024-02-14T09:05:28;101448.04;;;1.93;38.16
31331;BME280;34067;39.548;-76.088;2024-02-14T09:07:56;101451.52;;;2.54;37.38
31331;BME280;34067;39.548;-76.088;2024-02-14T09:10:24;101455.39;;;2.88;37.21
31331;BME280;34067;39.548;-76.088;2024-02-14T09:12:52;101460.06;;;3.05;37.06
31331;BME280;34067;39.548;-76.088;2024-02-14T09:15:20;101458.28;;;3.34;36.39
31331;BME280;34067;39.548;-76.088;2024-02-14T09:17:48;101464.53;;;2.59;36.33
31331;BME280;34067;39.548;-76.088;2024-02-14T09:20:16;101464.63;;;2.61;36.71
31331;BME280;34067;39.548;-76.088;2024-02-14T09:22:43;101470.04;;;1.70;37.38
31331;BME280;34067;39.548;-76.088;2024-02-14T09:25:11;101472.19;;;3.27;36.42
31331;BME280;34067;39.548;-76.088;2024-02-14T09:27:39;101475.94;;;3.20;37.20
31331;BME280;34067;39.548;-76.088;2024-02-14T09:30:08;101471.57;;;2.27;37.11
31331;BME280;34067;39.548;-76.088;2024-02-14T09:32:36;101475.00;;;2.95;36.77
31331;BME280;34067;39.548;-76.088;2024-02-14T09:35:05;101468.28;;;2.97;36.51
31331;BME280;34067;39.548;-76.088;2024-02-14T09:37:32;101473.65;;;2.26;36.93
31331;BME280;34067;39.548;-76.088;2024-02-14T09:40:00;101469.68;;;3.21;36.52
31331;BME280;34067;39.548;-76.088;2024-02-14T09:42:38;101475.10;;;3.22;36.99
31331;BME280;34067;39.548;-76.088;2024-02-14T09:45:10;101479.34;;;2.68;37.84
31331;BME280;34067;39.548;-76.088;2024-02-14T09:47:40;101482.87;;;2.70;37.32
31331;BME280;34067;39.548;-76.088;2024-02-14T09:50:10;101487.55;;;2.84;37.32
31331;BME280;34067;39.548;-76.088;2024-02-14T09:52:39;101488.75;;;2.60;37.51
31331;BME280;34067;39.548;-76.088;2024-02-14T09:55:10;101500.92;;;1.30;38.44
31331;BME280;34067;39.548;-76.088;2024-02-14T09:57:41;101500.68;;;2.42;38.06
31331;BME280;34067;39.548;-76.088;2024-02-14T10:00:11;101506.32;;;1.59;38.93
31331;BME280;34067;39.548;-76.088;2024-02-14T10:02:40;101513.29;;;1.93;38.34
31331;BME280;34067;39.548;-76.088;2024-02-14T10:05:08;101514.30;;;2.00;38.27
31331;BME280;34067;39.548;-76.088;2024-02-14T10:07:41;101514.62;;;2.05;38.08
31331;BME280;34067;39.548;-76.088;2024-02-14T10:10:09;101516.50;;;2.66;38.04
31331;BME280;34067;39.548;-76.088;2024-02-14T10:12:37;101519.76;;;2.15;38.17
31331;BME280;34067;39.548;-76.088;2024-02-14T10:15:06;101525.79;;;1.91;38.58
31331;BME280;34067;39.548;-76.088;2024-02-14T10:17:34;101525.85;;;1.93;38.86
31331;BME280;34067;39.548;-76.088;2024-02-14T10:20:03;101529.25;;;1.29;39.06
31331;BME280;34067;39.548;-76.088;2024-02-14T10:22:34;101528.57;;;1.54;39.05
31331;BME280;34067;39.548;-76.088;2024-02-14T10:25:02;101528.53;;;1.89;39.81
31331;BME280;34067;39.548;-76.088;2024-02-14T10:27:31;101531.08;;;2.00;39.33
31331;BME280;34067;39.548;-76.088;2024-02-14T10:30:00;101533.35;;;1.78;39.75
31331;BME280;34067;39.548;-76.088;2024-02-14T10:32:28;101534.56;;;1.22;39.77
31331;BME280;34067;39.548;-76.088;2024-02-14T10:34:56;101536.60;;;1.03;40.19
31331;BME280;34067;39.548;-76.088;2024-02-14T10:37:26;101543.39;;;1.24;39.64
31331;BME280;34067;39.548;-76.088;2024-02-14T10:39:56;101553.25;;;1.02;40.25
31331;BME280;34067;39.548;-76.088;2024-02-14T10:42:28;101558.59;;;0.49;40.18
31331;BME280;34067;39.548;-76.088;2024-02-14T10:44:56;101563.53;;;0.92;40.30
31331;BME280;34067;39.548;-76.088;2024-02-14T10:47:29;101568.83;;;2.13;39.73
31331;BME280;34067;39.548;-76.088;2024-02-14T10:50:02;101570.55;;;1.36;39.78
31331;BME280;34067;39.548;-76.088;2024-02-14T10:52:32;101577.49;;;1.63;40.02
31331;BME280;34067;39.548;-76.088;2024-02-14T10:55:03;101580.39;;;1.30;40.64
31331;BME280;34067;39.548;-76.088;2024-02-14T10:57:32;101598.57;;;-0.34;42.65
31331;BME280;34067;39.548;-76.088;2024-02-14T11:00:02;101596.57;;;-1.07;43.19
31331;BME280;34067;39.548;-76.088;2024-02-14T11:02:31;101586.71;;;-1.03;44.89
31331;BME280;34067;39.548;-76.088;2024-02-14T11:04:59;101601.66;;;-0.70;44.04
31331;BME280;34067;39.548;-76.088;2024-02-14T11:07:28;101583.80;;;0.35;43.83
31331;BME280;34067;39.548;-76.088;2024-02-14T11:10:07;101595.64;;;-0.50;42.98
31331;BME280;34067;39.548;-76.088;2024-02-14T11:12:35;101599.20;;;-0.24;43.35
31331;BME280;34067;39.548;-76.088;2024-02-14T11:15:10;101598.94;;;-0.75;43.33
31331;BME280;34067;39.548;-76.088;2024-02-14T11:17:39;101612.91;;;-0.55;43.70
31331;BME280;34067;39.548;-76.088;2024-02-14T11:20:17;101627.40;;;-1.49;43.78
31331;BME280;34067;39.548;-76.088;2024-02-14T11:23:03;101625.21;;;-0.19;43.19
31331;BME280;34067;39.548;-76.088;2024-02-14T11:25:32;101630.66;;;0.11;43.11
31331;BME280;34067;39.548;-76.088;2024-02-14T11:28:02;101613.93;;;-1.34;43.65
31331;BME280;34067;39.548;-76.088;2024-02-14T11:30:41;101637.55;;;-0.80;43.08
31331;BME280;34067;39.548;-76.088;2024-02-14T11:33:24;101636.56;;;-0.75;43.73
31331;BME280;34067;39.548;-76.088;2024-02-14T11:35:53;101636.11;;;-0.05;43.62
31331;BME280;34067;39.548;-76.088;2024-02-14T11:38:21;101659.04;;;-1.67;42.82
31331;BME280;34067;39.548;-76.088;2024-02-14T11:40:49;101670.65;;;-0.64;43.50
31331;BME280;34067;39.548;-76.088;2024-02-14T11:43:19;101659.73;;;-1.35;43.72
31331;BME280;34067;39.548;-76.088;2024-02-14T11:45:47;101672.47;;;-0.12;42.91
31331;BME280;34067;39.548;-76.088;2024-02-14T11:48:16;101690.28;;;-1.08;42.45
31331;BME280;34067;39.548;-76.088;2024-02-14T11:50:45;101691.52;;;-0.66;41.25
31331;BME280;34067;39.548;-76.088;2024-02-14T11:53:13;101695.81;;;-1.24;40.83
31331;BME280;34067;39.548;-76.088;2024-02-14T11:55:42;101697.15;;;-1.26;41.20
31331;BME280;34067;39.548;-76.088;2024-02-14T11:58:10;101686.89;;;-1.66;40.92
31331;BME280;34067;39.548;-76.088;2024-02-14T12:00:39;101686.63;;;-1.86;40.07
31331;BME280;34067;39.548;-76.088;2024-02-14T12:03:07;101697.02;;;-1.15;40.00
31331;BME280;34067;39.548;-76.088;2024-02-14T12:05:37;101706.73;;;-0.82;39.14
31331;BME280;34067;39.548;-76.088;2024-02-14T12:08:06;101713.23;;;-0.79;39.50
31331;BME280;34067;39.548;-76.088;2024-02-14T12:10:36;101720.34;;;-0.77;39.21
31331;BME280;34067;39.548;-76.088;2024-02-14T12:13:07;101746.90;;;-0.51;38.63
31331;BME280;34067;39.548;-76.088;2024-02-14T12:15:39;101730.82;;;-0.01;40.29
31331;BME280;34067;39.548;-76.088;2024-02-14T12:18:08;101745.75;;;-1.31;38.29
31331;BME280;34067;39.548;-76.088;2024-02-14T12:20:36;101763.22;;;-1.41;38.50
31331;BME280;34067;39.548;-76.088;2024-02-14T12:23:05;101757.00;;;-0.63;38.71
31331;BME280;34067;39.548;-76.088;2024-02-14T12:25:34;101750.48;;;-0.11;37.36
31331;BME280;34067;39.548;-76.088;2024-02-14T12:28:01;101766.26;;;-1.12;37.41
31331;BME280;34067;39.548;-76.088;2024-02-14T12:30:44;101776.48;;;-1.29;37.89
31331;BME280;34067;39.548;-76.088;2024-02-14T12:33:12;101777.76;;;-0.36;38.26
31331;BME280;34067;39.548;-76.088;2024-02-14T12:35:43;101778.46;;;-0.23;38.18
31331;BME280;34067;39.548;-76.088;2024-02-14T12:38:12;101797.44;;;-1.37;38.47
31331;BME280;34067;39.548;-76.088;2024-02-14T12:40:41;101788.78;;;-0.74;37.68
31331;BME280;34067;39.548;-76.088;2024-02-14T12:43:10;101793.70;;;-1.08;38.01
31331;BME280;34067;39.548;-76.088;2024-02-14T12:45:38;101809.51;;;-0.74;38.40
31331;BME280;34067;39.548;-76.088;2024-02-14T12:48:08;101808.36;;;-0.58;38.37